createdAt,value
2023-03-29T00:02:04.847Z,42.20
2023-03-29T00:04:31.760Z,42.20
2023-03-29T00:07:04.004Z,42.30
2023-03-29T00:09:33.176Z,42.30
2023-03-29T00:12:01.385Z,42.30
2023-03-29T00:14:30.782Z,42.30
2023-03-29T00:16:58.820Z,42.30
2023-03-29T00:19:25.868Z,42.30
2023-03-29T00:21:52.608Z,42.30
2023-03-29T00:24:21.169Z,42.30
2023-03-29T00:26:48.355Z,42.30
2023-03-29T00:29:15.114Z,42.30
2023-03-29T00:31:41.932Z,42.30
2023-03-29T00:34:09.062Z,42.30
2023-03-29T00:36:35.783Z,42.30
2023-03-29T00:39:02.606Z,42.40
2023-03-29T00:41:29.287Z,42.30
2023-03-29T00:44:01.686Z,42.30
2023-03-29T00:46:30.419Z,42.40
2023-03-29T00:49:07.109Z,42.30
2023-03-29T00:51:36.756Z,42.40
2023-03-29T00:54:06.932Z,42.30
2023-03-29T00:56:38.602Z,42.40
2023-03-29T00:59:18.770Z,42.40
2023-03-29T01:01:54.767Z,42.40
2023-03-29T01:04:41.677Z,42.40
2023-03-29T01:07:38.165Z,42.40
2023-03-29T01:10:22.733Z,42.50
2023-03-29T01:12:56.454Z,42.50
2023-03-29T01:15:26.591Z,42.50
2023-03-29T01:17:55.601Z,42.50
2023-03-29T01:20:55.512Z,42.40
2023-03-29T01:23:30.176Z,42.50
2023-03-29T01:26:05.954Z,42.50
2023-03-29T01:28:39.173Z,42.50
2023-03-29T01:31:12.005Z,42.50
2023-03-29T01:33:49.776Z,42.50
2023-03-29T01:36:24.946Z,42.50
2023-03-29T01:39:00.620Z,42.50
2023-03-29T01:41:48.154Z,42.50
2023-03-29T01:44:24.808Z,42.50
2023-03-29T01:47:13.142Z,42.50
2023-03-29T01:49:46.122Z,42.60
2023-03-29T01:52:20.432Z,42.60
2023-03-29T01:54:54.561Z,42.60
2023-03-29T01:57:24.926Z,42.60
2023-03-29T01:59:54.906Z,42.60
2023-03-29T02:02:23.397Z,42.60
2023-03-29T02:04:54.113Z,42.60
2023-03-29T02:07:26.466Z,42.60
2023-03-29T02:09:54.320Z,42.60
2023-03-29T02:12:22.276Z,42.60
2023-03-29T02:14:49.196Z,42.60
2023-03-29T02:17:16.667Z,42.60
2023-03-29T02:19:46.159Z,42.70
2023-03-29T02:22:15.295Z,42.70
2023-03-29T02:24:45.138Z,42.70
2023-03-29T02:27:12.257Z,42.60
2023-03-29T02:29:39.006Z,42.70
2023-03-29T02:32:31.078Z,42.70
2023-03-29T02:35:36.426Z,42.70
2023-03-29T02:38:07.177Z,42.70
2023-03-29T02:40:35.619Z,42.70
2023-03-29T02:43:03.364Z,42.70
2023-03-29T02:45:31.014Z,42.70
2023-03-29T02:48:03.434Z,42.70
2023-03-29T02:50:36.979Z,42.70
2023-03-29T02:53:14.727Z,42.70
2023-03-29T02:55:41.598Z,42.70
2023-03-29T02:58:08.498Z,42.70
2023-03-29T03:00:43.101Z,42.70
2023-03-29T03:03:10.335Z,42.80
2023-03-29T03:05:38.187Z,42.80
2023-03-29T03:08:07.356Z,42.80
2023-03-29T03:10:35.499Z,42.80
2023-03-29T03:13:02.640Z,42.80
2023-03-29T03:15:31.144Z,42.80
2023-03-29T03:17:58.012Z,42.80
2023-03-29T03:20:24.895Z,42.80
2023-03-29T03:22:51.800Z,42.80
2023-03-29T03:25:21.101Z,42.80
2023-03-29T03:27:49.736Z,42.80
2023-03-29T03:30:17.277Z,42.80
2023-03-29T03:32:44.775Z,42.90
2023-03-29T03:35:11.792Z,42.80
2023-03-29T03:37:39.559Z,42.80
2023-03-29T03:40:08.928Z,42.90
2023-03-29T03:42:35.749Z,42.90
2023-03-29T03:45:02.482Z,42.90
2023-03-29T03:47:29.239Z,42.90
2023-03-29T03:49:56.356Z,42.90
2023-03-29T03:52:23.510Z,42.90
2023-03-29T03:54:50.288Z,42.90
2023-03-29T03:57:17.427Z,42.90
2023-03-29T03:59:44.773Z,42.90
2023-03-29T04:02:11.503Z,42.90
2023-03-29T04:04:39.370Z,42.90
2023-03-29T04:07:06.371Z,42.90
2023-03-29T04:09:34.136Z,42.90
2023-03-29T04:12:01.536Z,43.00
2023-03-29T04:14:28.519Z,42.90
2023-03-29T04:16:55.410Z,43.00
2023-03-29T04:19:22.339Z,43.00
2023-03-29T04:21:49.609Z,43.00
2023-03-29T04:24:17.262Z,43.00
2023-03-29T04:26:44.392Z,43.00
2023-03-29T04:29:11.217Z,43.00
2023-03-29T04:31:37.972Z,43.00
2023-03-29T04:34:04.795Z,43.00
2023-03-29T04:36:31.647Z,43.00
2023-03-29T04:39:01.350Z,43.00
2023-03-29T04:41:28.938Z,43.00
2023-03-29T04:43:56.130Z,43.10
2023-03-29T04:46:26.669Z,43.10
2023-03-29T04:48:54.075Z,43.10
2023-03-29T04:51:22.418Z,43.10
2023-03-29T04:53:50.344Z,43.10
2023-03-29T04:56:17.512Z,43.10
2023-03-29T04:58:44.601Z,43.10
2023-03-29T05:01:11.629Z,43.10
2023-03-29T05:03:38.547Z,43.10
2023-03-29T05:06:07.346Z,43.10
2023-03-29T05:08:38.329Z,43.20
2023-03-29T05:11:10.432Z,43.10
2023-03-29T05:13:38.021Z,43.10
2023-03-29T05:16:05.209Z,43.20
2023-03-29T05:18:32.026Z,43.20
2023-03-29T05:20:59.675Z,43.20
2023-03-29T05:23:27.347Z,43.20
2023-03-29T05:25:54.469Z,43.20
2023-03-29T05:28:21.701Z,43.20
2023-03-29T05:31:00.254Z,43.20
2023-03-29T05:33:27.482Z,43.20
2023-03-29T05:36:05.543Z,43.20
2023-03-29T05:38:35.808Z,43.20
2023-03-29T05:41:03.179Z,43.20
2023-03-29T05:43:30.109Z,43.20
2023-03-29T05:45:57.078Z,43.30
2023-03-29T05:48:24.706Z,43.30
2023-03-29T05:50:53.520Z,43.30
2023-03-29T05:53:22.746Z,43.30
2023-03-29T05:55:49.914Z,43.30
2023-03-29T05:58:20.304Z,43.30
2023-03-29T06:00:49.632Z,43.30
2023-03-29T06:03:21.391Z,43.30
2023-03-29T06:05:57.745Z,43.30
2023-03-29T06:08:26.045Z,43.30
2023-03-29T06:11:04.596Z,43.30
2023-03-29T06:13:34.052Z,43.30
2023-03-29T06:16:01.212Z,43.30
2023-03-29T06:18:28.140Z,43.30
2023-03-29T06:20:54.906Z,43.30
2023-03-29T06:23:23.216Z,43.30
2023-03-29T06:25:53.237Z,43.30
2023-03-29T06:28:20.023Z,43.30
2023-03-29T06:30:47.900Z,43.30
2023-03-29T06:33:16.833Z,43.30
2023-03-29T06:35:46.137Z,43.30
2023-03-29T06:38:13.795Z,43.30
2023-03-29T06:40:41.044Z,43.30
2023-03-29T06:43:07.787Z,43.30
2023-03-29T06:45:36.957Z,43.30
2023-03-29T06:48:05.041Z,43.30
2023-03-29T06:50:32.447Z,43.30
2023-03-29T06:52:59.159Z,43.30
2023-03-29T06:55:27.387Z,43.30
2023-03-29T06:57:54.833Z,44.70
2023-03-29T07:00:30.750Z,46.50
2023-03-29T07:02:58.463Z,46.80
2023-03-29T07:05:28.592Z,47.60
2023-03-29T07:08:08.106Z,47.50
2023-03-29T07:10:43.569Z,47.20
2023-03-29T07:13:14.621Z,47.10
2023-03-29T07:15:43.217Z,46.80
2023-03-29T07:18:11.164Z,46.90
2023-03-29T07:20:42.626Z,46.40
2023-03-29T07:23:09.744Z,46.10
2023-03-29T07:25:37.510Z,46.00
2023-03-29T07:28:04.860Z,45.80
2023-03-29T07:30:32.576Z,45.70
2023-03-29T07:33:00.671Z,45.70
2023-03-29T07:35:28.266Z,45.50
2023-03-29T07:37:55.943Z,45.50
2023-03-29T07:40:23.842Z,45.40
2023-03-29T07:42:56.642Z,45.30
2023-03-29T07:45:27.382Z,45.30
2023-03-29T07:47:57.267Z,45.20
2023-03-29T07:50:24.605Z,45.10
2023-03-29T07:52:51.498Z,45.10
2023-03-29T07:55:18.623Z,45.10
2023-03-29T07:57:45.333Z,45.00
2023-03-29T08:00:16.307Z,45.00
2023-03-29T08:02:44.833Z,45.00
2023-03-29T08:05:13.639Z,45.00
2023-03-29T08:07:42.297Z,44.90
2023-03-29T08:10:12.452Z,45.00
2023-03-29T08:12:42.017Z,44.90
2023-03-29T08:15:09.392Z,44.90
2023-03-29T08:17:36.925Z,44.90
2023-03-29T08:20:06.174Z,44.80
2023-03-29T08:22:34.204Z,44.80
2023-03-29T08:25:02.578Z,44.80
2023-03-29T08:27:29.363Z,44.80
2023-03-29T08:29:56.256Z,44.70
2023-03-29T08:32:23.011Z,44.70
2023-03-29T08:34:49.699Z,44.70
2023-03-29T08:37:16.651Z,44.70
2023-03-29T08:39:43.658Z,44.70
2023-03-29T08:42:40.934Z,44.70
2023-03-29T08:45:23.076Z,44.70
2023-03-29T08:48:04.474Z,44.70
2023-03-29T08:50:36.721Z,44.70
2023-03-29T08:53:15.432Z,44.80
2023-03-29T08:55:45.301Z,44.80
2023-03-29T08:58:26.075Z,44.80
2023-03-29T09:00:58.841Z,44.80
2023-03-29T09:03:34.594Z,44.70
2023-03-29T09:06:07.724Z,44.70
2023-03-29T09:08:41.881Z,44.70
2023-03-29T09:11:23.503Z,44.70
2023-03-29T09:14:12.236Z,44.70
2023-03-29T09:16:57.087Z,44.70
2023-03-29T09:19:42.307Z,44.70
2023-03-29T09:22:20.799Z,44.70
2023-03-29T09:24:56.405Z,44.70
2023-03-29T09:27:33.746Z,44.70
2023-03-29T09:30:25.744Z,44.60
2023-03-29T09:32:56.598Z,44.70
2023-03-29T09:35:27.629Z,44.70
2023-03-29T09:37:55.137Z,44.70
2023-03-29T09:40:32.991Z,44.70
2023-03-29T09:43:04.144Z,44.70
2023-03-29T09:45:31.270Z,44.80
2023-03-29T09:48:06.579Z,45.00
2023-03-29T09:50:37.863Z,45.00
2023-03-29T09:53:05.452Z,45.00
2023-03-29T09:55:36.352Z,45.00
2023-03-29T09:58:27.471Z,48.10
2023-03-29T10:00:58.401Z,48.00
2023-03-29T10:03:31.125Z,47.90
2023-03-29T10:06:01.637Z,47.70
2023-03-29T10:08:31.454Z,47.80
2023-03-29T10:11:00.218Z,47.60
2023-03-29T10:13:30.586Z,47.50
2023-03-29T10:16:09.618Z,47.40
2023-03-29T10:18:42.485Z,47.30
2023-03-29T10:21:12.976Z,47.10
2023-03-29T10:23:40.136Z,47.00
2023-03-29T10:26:14.663Z,47.10
2023-03-29T10:28:41.694Z,46.90
2023-03-29T10:31:17.950Z,46.80
2023-03-29T10:33:50.747Z,46.70
2023-03-29T10:36:17.653Z,46.60
2023-03-29T10:38:44.757Z,46.60
2023-03-29T10:41:12.726Z,46.60
2023-03-29T10:43:45.353Z,46.40
2023-03-29T10:46:22.380Z,46.40
2023-03-29T10:48:55.183Z,46.30
2023-03-29T10:51:24.267Z,46.30
2023-03-29T10:53:51.059Z,46.30
2023-03-29T10:56:29.516Z,46.20
2023-03-29T10:58:56.205Z,46.20
2023-03-29T11:01:48.943Z,46.20
2023-03-29T11:05:00.269Z,46.10
2023-03-29T11:07:34.616Z,46.10
2023-03-29T11:10:26.078Z,46.10
2023-03-29T11:12:55.547Z,46.00
2023-03-29T11:15:28.220Z,46.00
2023-03-29T11:18:32.474Z,46.00
2023-03-29T11:21:19.748Z,46.00
2023-03-29T11:24:09.137Z,46.00
2023-03-29T11:26:56.334Z,46.00
2023-03-29T11:29:29.546Z,46.10
2023-03-29T11:32:05.378Z,46.10
2023-03-29T11:34:38.702Z,46.20
2023-03-29T11:37:42.210Z,46.10
2023-03-29T11:40:32.463Z,46.20
2023-03-29T11:43:03.114Z,46.20
2023-03-29T11:45:35.483Z,46.30
2023-03-29T11:48:05.049Z,46.40
2023-03-29T11:50:42.688Z,46.40
2023-03-29T11:53:19.710Z,46.40
2023-03-29T11:55:47.341Z,46.40
2023-03-29T11:58:27.559Z,46.40
2023-03-29T12:01:01.822Z,46.40
2023-03-29T12:03:46.350Z,46.50
2023-03-29T12:06:31.949Z,46.50
2023-03-29T12:09:04.602Z,46.60
2023-03-29T12:11:44.824Z,46.60
2023-03-29T12:14:25.465Z,46.70
2023-03-29T12:17:07.245Z,46.80
2023-03-29T12:19:46.726Z,46.80
2023-03-29T12:22:13.476Z,46.80
2023-03-29T12:24:43.612Z,46.90
2023-03-29T12:27:26.079Z,46.90
2023-03-29T12:29:52.707Z,46.90
2023-03-29T12:32:49.087Z,46.90
2023-03-29T12:35:40.192Z,47.00
2023-03-29T12:38:20.752Z,47.20
2023-03-29T12:40:53.818Z,47.10
2023-03-29T12:43:27.123Z,47.10
2023-03-29T12:46:16.224Z,47.10
2023-03-29T12:48:45.372Z,47.10
2023-03-29T12:51:16.104Z,47.10
2023-03-29T12:53:49.104Z,47.10
2023-03-29T12:56:23.496Z,47.00
2023-03-29T12:59:16.547Z,47.00
2023-03-29T13:02:21.991Z,47.00
2023-03-29T13:04:52.425Z,47.00
2023-03-29T13:07:22.340Z,47.00
2023-03-29T13:09:54.639Z,46.90
2023-03-29T13:12:31.443Z,47.00
2023-03-29T13:15:01.994Z,46.90
2023-03-29T13:17:56.616Z,46.90
2023-03-29T13:20:37.755Z,46.90
2023-03-29T13:23:45.886Z,46.90
2023-03-29T13:26:46.446Z,46.90
2023-03-29T13:29:47.949Z,47.00
2023-03-29T13:32:27.897Z,47.00
2023-03-29T13:38:15.305Z,47.00
2023-03-29T13:40:46.894Z,47.00
2023-03-29T13:43:19.377Z,47.10
2023-03-29T13:46:11.799Z,47.10
2023-03-29T13:48:38.732Z,47.10
2023-03-29T13:51:41.090Z,47.00
2023-03-29T13:54:24.863Z,47.00
2023-03-29T13:57:10.453Z,47.10
2023-03-29T13:59:47.677Z,47.00
2023-03-29T14:02:22.388Z,47.00
2023-03-29T14:04:52.314Z,47.00
2023-03-29T14:07:26.216Z,47.00
2023-03-29T14:09:55.649Z,47.00
2023-03-29T14:12:22.733Z,47.00
2023-03-29T14:15:01.967Z,47.00
2023-03-29T14:17:29.182Z,47.00
2023-03-29T14:19:58.909Z,47.00
2023-03-29T14:22:31.171Z,47.00
2023-03-29T14:25:02.530Z,47.00
2023-03-29T14:27:31.885Z,46.90
2023-03-29T14:29:58.883Z,46.90
2023-03-29T14:32:30.838Z,46.90
2023-03-29T14:34:58.726Z,46.80
2023-03-29T14:37:28.518Z,46.90
2023-03-29T14:39:56.576Z,46.80
2023-03-29T14:42:28.432Z,46.80
2023-03-29T14:45:04.101Z,46.80
2023-03-29T14:47:33.018Z,46.80
2023-03-29T14:50:01.681Z,46.80
2023-03-29T14:52:30.558Z,46.90
2023-03-29T14:55:01.046Z,46.90
2023-03-29T14:57:33.227Z,47.00
2023-03-29T15:00:02.550Z,47.00
2023-03-29T15:02:34.119Z,46.90
2023-03-29T15:05:04.759Z,46.90
2023-03-29T15:07:33.800Z,46.90
2023-03-29T15:10:02.246Z,46.90
2023-03-29T15:12:30.751Z,46.90
2023-03-29T15:14:58.288Z,46.90
2023-03-29T15:17:50.358Z,46.90
2023-03-29T15:20:28.825Z,46.90
2023-03-29T15:23:20.717Z,46.90
2023-03-29T15:25:58.304Z,46.90
2023-03-29T15:28:35.739Z,46.90
2023-03-29T15:31:13.038Z,47.00
2023-03-29T15:33:41.700Z,47.00
2023-03-29T15:36:11.262Z,47.00
2023-03-29T15:41:10.551Z,47.00
2023-03-29T15:43:37.443Z,47.00
2023-03-29T15:46:04.726Z,47.00
2023-03-29T15:48:33.988Z,47.00
2023-03-29T15:51:04.820Z,47.10
2023-03-29T15:53:33.389Z,47.10
2023-03-29T15:56:02.395Z,47.10
2023-03-29T15:58:31.753Z,47.10
2023-03-29T16:01:14.191Z,47.10
2023-03-29T16:03:41.700Z,47.20
2023-03-29T16:06:11.931Z,47.20
2023-03-29T16:08:38.856Z,47.30
2023-03-29T16:11:06.738Z,47.20
2023-03-29T16:13:33.469Z,47.20
2023-03-29T16:16:00.261Z,47.30
2023-03-29T16:18:27.229Z,47.20
2023-03-29T16:20:54.558Z,47.20
2023-03-29T16:23:21.327Z,47.30
2023-03-29T16:25:48.015Z,47.30
2023-03-29T16:28:14.662Z,47.30
2023-03-29T16:30:43.005Z,47.40
2023-03-29T16:33:10.692Z,47.40
2023-03-29T16:35:40.071Z,47.40
2023-03-29T16:38:07.944Z,47.40
2023-03-29T16:40:35.241Z,47.40
2023-03-29T16:43:02.711Z,47.30
2023-03-29T16:45:29.722Z,47.30
2023-03-29T16:47:56.985Z,47.30
2023-03-29T16:50:23.833Z,47.40
2023-03-29T16:52:52.587Z,47.30
2023-03-29T16:55:19.526Z,47.50
2023-03-29T16:57:47.719Z,47.50
2023-03-29T17:00:18.565Z,47.60
2023-03-29T17:02:45.932Z,47.60
2023-03-29T17:05:13.147Z,47.60
2023-03-29T17:07:40.149Z,47.70
2023-03-29T17:10:08.176Z,47.70
2023-03-29T17:12:35.694Z,47.80
2023-03-29T17:15:03.386Z,47.80
2023-03-29T17:17:30.075Z,47.90
2023-03-29T17:19:56.851Z,47.90
2023-03-29T17:22:24.305Z,48.00
2023-03-29T17:24:51.474Z,47.90
2023-03-29T17:27:18.809Z,48.00
2023-03-29T17:29:45.562Z,48.20
2023-03-29T17:32:12.241Z,48.10
2023-03-29T17:34:39.005Z,48.10
2023-03-29T17:37:05.769Z,48.10
2023-03-29T17:39:37.089Z,48.20
2023-03-29T17:42:05.387Z,48.30
2023-03-29T17:44:33.273Z,48.40
2023-03-29T17:47:01.228Z,48.40
2023-03-29T17:49:28.322Z,48.40
2023-03-29T17:51:55.112Z,48.40
2023-03-29T17:54:21.844Z,48.30
2023-03-29T17:56:48.899Z,48.30
2023-03-29T17:59:15.897Z,48.30
2023-03-29T18:01:42.885Z,48.30
2023-03-29T18:04:10.068Z,48.30
2023-03-29T18:06:36.963Z,48.30
2023-03-29T18:09:03.934Z,48.30
2023-03-29T18:11:31.904Z,48.30
2023-03-29T18:13:59.587Z,48.30
2023-03-29T18:16:26.574Z,48.30
2023-03-29T18:18:53.450Z,48.30
2023-03-29T18:21:20.820Z,48.30
2023-03-29T18:23:49.236Z,48.30
2023-03-29T18:26:16.778Z,48.30
2023-03-29T18:28:48.637Z,48.30
2023-03-29T18:31:15.990Z,48.30
2023-03-29T18:33:42.869Z,48.30
2023-03-29T18:36:13.249Z,48.30
2023-03-29T18:38:40.643Z,48.30
2023-03-29T18:41:08.540Z,48.40
2023-03-29T18:43:37.063Z,48.30
2023-03-29T18:46:04.174Z,48.30
2023-03-29T18:48:31.284Z,48.50
2023-03-29T18:50:58.472Z,48.70
2023-03-29T18:53:26.237Z,48.70
2023-03-29T18:55:52.886Z,48.80
2023-03-29T18:58:23.857Z,48.90
2023-03-29T19:00:51.423Z,48.90
2023-03-29T19:03:18.328Z,48.90
2023-03-29T19:05:52.645Z,49.00
2023-03-29T19:08:19.517Z,49.00
2023-03-29T19:10:46.305Z,49.00
2023-03-29T19:13:13.142Z,49.00
2023-03-29T19:15:42.518Z,49.00
2023-03-29T19:18:09.554Z,49.00
2023-03-29T19:20:36.748Z,49.10
2023-03-29T19:23:04.123Z,49.00
2023-03-29T19:25:32.040Z,49.00
2023-03-29T19:27:59.092Z,49.00
2023-03-29T19:30:25.854Z,49.10
2023-03-29T19:32:52.864Z,49.00
2023-03-29T19:35:19.835Z,49.00
2023-03-29T19:37:46.655Z,49.00
2023-03-29T19:40:13.585Z,49.00
2023-03-29T19:42:41.110Z,49.00
2023-03-29T19:45:09.558Z,49.00
2023-03-29T19:47:37.114Z,49.00
2023-03-29T19:50:05.055Z,49.00
2023-03-29T19:52:32.890Z,49.00
2023-03-29T19:54:59.611Z,49.00
2023-03-29T19:57:26.470Z,49.00
2023-03-29T19:59:53.925Z,49.00
2023-03-29T20:02:20.821Z,49.00
2023-03-29T20:04:47.551Z,49.00
2023-03-29T20:07:14.325Z,49.00
2023-03-29T20:09:44.639Z,49.00
2023-03-29T20:12:12.020Z,49.00
2023-03-29T20:14:40.173Z,49.00
2023-03-29T20:17:07.634Z,49.10
2023-03-29T20:19:36.660Z,49.10
2023-03-29T20:22:04.537Z,49.10
2023-03-29T20:24:32.641Z,49.10
2023-03-29T20:26:59.532Z,49.10
2023-03-29T20:29:26.331Z,49.20
2023-03-29T20:31:53.302Z,49.20
2023-03-29T20:34:20.118Z,49.20
2023-03-29T20:36:47.015Z,49.20
2023-03-29T20:39:17.645Z,49.30
2023-03-29T20:41:47.496Z,49.30
2023-03-29T20:44:16.923Z,49.20
2023-03-29T20:46:54.442Z,49.30
2023-03-29T20:49:26.507Z,49.30
2023-03-29T20:51:58.408Z,49.40
2023-03-29T20:54:26.401Z,49.40
2023-03-29T20:56:54.718Z,49.40
2023-03-29T20:59:22.882Z,49.50
2023-03-29T21:01:50.261Z,49.60
2023-03-29T21:04:17.879Z,49.50
2023-03-29T21:06:46.125Z,49.50
2023-03-29T21:09:13.668Z,49.60
2023-03-29T21:11:40.864Z,49.60
2023-03-29T21:14:09.232Z,49.50
2023-03-29T21:16:36.085Z,49.60
2023-03-29T21:19:02.903Z,49.70
2023-03-29T21:21:29.889Z,49.70
2023-03-29T21:23:56.600Z,49.70
2023-03-29T21:26:23.496Z,49.70
2023-03-29T21:28:50.340Z,49.70
2023-03-29T21:31:17.129Z,49.70
2023-03-29T21:33:43.867Z,49.70
2023-03-29T21:36:10.839Z,49.70
2023-03-29T21:38:37.558Z,49.70
2023-03-29T21:41:04.523Z,49.70
2023-03-29T21:43:31.371Z,49.70
2023-03-29T21:45:58.107Z,49.70
2023-03-29T21:48:24.887Z,49.70
2023-03-29T21:50:51.642Z,49.70
2023-03-29T21:53:18.434Z,49.70
2023-03-29T21:55:47.991Z,49.70
2023-03-29T21:58:14.771Z,49.70
2023-03-29T22:00:41.691Z,49.70
2023-03-29T22:03:08.442Z,49.70
2023-03-29T22:05:35.541Z,49.70
2023-03-29T22:08:03.959Z,49.70
2023-03-29T22:10:32.981Z,49.70
2023-03-29T22:13:00.618Z,49.70
2023-03-29T22:15:35.425Z,49.70
2023-03-29T22:18:03.650Z,49.70
2023-03-29T22:20:30.607Z,49.70
2023-03-29T22:22:57.321Z,49.70
2023-03-29T22:25:24.371Z,49.70
2023-03-29T22:27:51.065Z,49.70
2023-03-29T22:30:17.911Z,49.70
2023-03-29T22:32:44.705Z,49.60
2023-03-29T22:35:12.641Z,49.70
2023-03-29T22:37:44.967Z,49.60
2023-03-29T22:40:13.156Z,49.60
2023-03-29T22:42:39.943Z,49.60
2023-03-29T22:45:07.560Z,49.60
2023-03-29T22:47:35.334Z,49.60
2023-03-29T22:50:02.147Z,49.60
2023-03-29T22:52:29.073Z,49.50
2023-03-29T22:54:55.855Z,49.60
2023-03-29T22:57:22.599Z,49.60
2023-03-29T22:59:49.409Z,49.70
2023-03-29T23:02:16.218Z,49.80
2023-03-29T23:04:42.983Z,50.10
2023-03-29T23:07:09.733Z,50.00
2023-03-29T23:09:36.567Z,50.00
2023-03-29T23:12:03.237Z,50.00
2023-03-29T23:14:29.974Z,49.90
2023-03-29T23:16:56.654Z,49.90
2023-03-29T23:19:23.451Z,49.90
2023-03-29T23:21:50.570Z,49.90
2023-03-29T23:24:19.003Z,49.90
2023-03-29T23:26:48.920Z,49.90
2023-03-29T23:29:15.666Z,49.90
2023-03-29T23:31:42.459Z,49.90
2023-03-29T23:34:09.179Z,49.80
2023-03-29T23:36:35.990Z,49.80
2023-03-29T23:39:02.739Z,49.90
2023-03-29T23:41:30.499Z,49.90
2023-03-29T23:43:57.925Z,49.80
2023-03-29T23:46:25.170Z,49.80
2023-03-29T23:48:52.040Z,49.90
2023-03-29T23:51:22.928Z,49.90
2023-03-29T23:53:50.645Z,49.80
2023-03-29T23:56:17.580Z,49.90
2023-03-29T23:58:44.565Z,49.80
